Time;durP1;ratioP1;P1;durP2;ratioP2;P2;SDS_P1;SDS_P2;PMS_P1;PMS_P2;Temp;Humidity;BMP_temperature;BMP_pressure;BME280_temperature;BME280_humidity;BME280_pressure;Samples;Min_cycle;Max_cycle;Signal;HPM_P1;HPM_P2
2022/05/10 00:02:15;;;;;;;5.67;5.37;;;20.30;44.90;;;;;;5080130;28;20214;-59
2022/05/10 00:04:43;;;;;;;6.23;5.73;;;20.30;45.00;;;;;;5079897;28;20209;-59
2022/05/10 00:07:08;;;;;;;5.90;5.50;;;20.30;45.00;;;;;;5079851;28;20462;-59
2022/05/10 00:09:34;;;;;;;6.17;5.87;;;20.30;45.00;;;;;;5080233;27;20521;-60
2022/05/10 00:12:00;;;;;;;5.80;5.50;;;20.30;45.00;;;;;;5078857;28;20224;-59
2022/05/10 00:14:27;;;;;;;5.60;5.30;;;20.30;45.70;;;;;;5080782;28;20252;-60
2022/05/10 00:16:53;;;;;;;5.80;5.50;;;20.30;45.00;;;;;;5082027;27;20237;-59
2022/05/10 00:19:22;;;;;;;5.90;5.60;;;20.30;45.00;;;;;;5081190;28;20561;-59
2022/05/10 00:21:48;;;;;;;6.00;5.70;;;20.30;45.70;;;;;;5079461;28;20723;-59
2022/05/10 00:24:17;;;;;;;5.97;5.67;;;20.30;45.00;;;;;;5083102;28;20854;-60
2022/05/10 00:26:42;;;;;;;6.03;5.73;;;20.30;45.00;;;;;;5077238;28;20477;-59
2022/05/10 00:29:08;;;;;;;5.50;5.20;;;20.30;45.00;;;;;;5077928;28;20492;-59
2022/05/10 00:31:34;;;;;;;5.67;5.37;;;20.30;45.00;;;;;;5080712;28;20348;-59
2022/05/10 00:34:01;;;;;;;6.20;5.80;;;20.30;45.00;;;;;;5079602;28;20964;-59
2022/05/10 00:36:27;;;;;;;5.87;5.60;;;20.30;45.00;;;;;;5086617;28;20456;-59
2022/05/10 00:38:52;;;;;;;6.37;6.00;;;20.30;45.00;;;;;;5081871;27;20802;-59
2022/05/10 00:41:21;;;;;;;6.10;5.80;;;20.30;45.00;;;;;;5079704;27;20637;-59
2022/05/10 00:43:55;;;;;;;6.43;6.03;;;20.30;45.00;;;;;;5078418;28;20561;-60
2022/05/10 00:46:32;;;;;;;5.63;5.33;;;20.30;45.70;;;;;;5080663;28;20526;-59
2022/05/10 00:49:20;;;;;;;6.87;6.47;;;20.30;45.00;;;;;;5079604;28;20484;-60
2022/05/10 00:52:17;;;;;;;6.20;5.90;;;20.30;45.00;;;;;;5059008;28;20475;-60
2022/05/10 00:54:53;;;;;;;5.97;5.67;;;20.30;45.00;;;;;;5047834;28;20517;-60
2022/05/10 00:57:46;;;;;;;6.30;6.00;;;20.30;45.00;;;;;;5057448;28;20553;-59
2022/05/10 01:00:24;;;;;;;6.03;5.70;;;20.30;45.00;;;;;;5082349;27;20957;-59
2022/05/10 01:03:12;;;;;;;5.90;5.60;;;20.30;45.00;;;;;;5078831;27;20446;-58
2022/05/10 01:05:41;;;;;;;6.00;5.70;;;20.30;45.00;;;;;;5077575;28;20448;-59
2022/05/10 01:08:14;;;;;;;6.27;5.97;;;20.30;45.00;;;;;;5077957;28;20478;-60
2022/05/10 01:10:53;;;;;;;6.00;5.70;;;20.30;44.90;;;;;;5080064;27;20538;-59
2022/05/10 01:13:32;;;;;;;5.93;5.63;;;20.30;45.00;;;;;;5079283;27;20446;-59
2022/05/10 01:16:14;;;;;;;5.83;5.53;;;20.30;45.00;;;;;;5077913;27;20938;-59
2022/05/10 01:18:41;;;;;;;6.50;6.10;;;20.30;45.00;;;;;;5078693;28;20564;-59
2022/05/10 01:21:24;;;;;;;7.00;6.30;;;20.30;45.00;;;;;;5079696;27;20498;-59
2022/05/10 01:24:17;;;;;;;6.43;6.13;;;20.30;45.00;;;;;;5074073;28;20452;-59
2022/05/10 01:27:02;;;;;;;6.37;5.97;;;20.30;45.00;;;;;;5080513;27;20912;-60
2022/05/10 01:29:36;;;;;;;6.27;5.97;;;20.30;45.00;;;;;;5079175;28;20446;-59
2022/05/10 01:34:56;;;;;;;6.30;6.00;;;20.30;45.30;;;;;;5080530;27;20461;-59
2022/05/10 01:37:25;;;;;;;6.10;5.60;;;20.30;44.90;;;;;;5079931;27;20461;-59
2022/05/10 01:40:11;;;;;;;6.33;5.97;;;20.30;45.00;;;;;;5079920;27;20477;-59
2022/05/10 01:42:52;;;;;;;6.57;6.17;;;20.30;45.00;;;;;;5080740;28;20439;-60
2022/05/10 01:45:37;;;;;;;5.83;5.53;;;20.30;45.00;;;;;;5081731;28;20541;-59
2022/05/10 01:48:04;;;;;;;6.37;5.97;;;20.30;45.00;;;;;;5081254;28;20450;-59
2022/05/10 01:50:40;;;;;;;6.47;6.13;;;20.30;45.00;;;;;;5081436;28;20477;-59
2022/05/10 01:53:23;;;;;;;6.13;5.83;;;20.20;44.90;;;;;;5080228;27;20460;-59
2022/05/10 01:55:51;;;;;;;6.70;6.40;;;20.30;45.00;;;;;;5060987;28;20484;-60
2022/05/10 01:58:25;;;;;;;6.23;5.93;;;20.30;45.00;;;;;;5062718;28;20479;-58
2022/05/10 02:01:09;;;;;;;5.83;5.53;;;20.30;45.00;;;;;;5062877;28;20475;-59
2022/05/10 02:04:11;;;;;;;5.90;5.53;;;20.20;44.90;;;;;;5061796;28;20772;-59
2022/05/10 02:06:51;;;;;;;7.00;6.63;;;20.20;44.90;;;;;;5065974;28;20438;-59
2022/05/10 02:10:06;;;;;;;5.90;5.60;;;20.20;44.90;;;;;;5068278;28;20758;-59
2022/05/10 02:12:44;;;;;;;6.23;5.87;;;20.30;45.00;;;;;;5076630;27;20438;-59
2022/05/10 02:15:46;;;;;;;6.27;5.87;;;20.20;45.10;;;;;;5069718;28;20513;-59
2022/05/10 02:18:20;;;;;;;6.57;6.27;;;20.20;44.90;;;;;;5077865;27;20470;-59
2022/05/10 02:20:57;;;;;;;6.27;5.90;;;20.20;44.90;;;;;;5079584;28;20518;-59
2022/05/10 02:23:47;;;;;;;6.20;5.90;;;20.20;44.90;;;;;;5078634;28;20456;-59
2022/05/10 02:26:20;;;;;;;6.67;6.30;;;20.20;44.90;;;;;;5077904;28;20465;-59
2022/05/10 02:29:15;;;;;;;6.57;6.17;;;20.20;44.90;;;;;;5077205;28;20764;-59
2022/05/10 02:34:45;;;;;;;5.87;5.57;;;20.20;44.90;;;;;;5060762;28;20961;-59
2022/05/10 02:37:14;;;;;;;6.10;5.80;;;20.20;44.90;;;;;;5066909;28;20509;-59
2022/05/10 02:39:40;;;;;;;6.40;6.10;;;20.20;45.60;;;;;;5065946;28;20439;-59
2022/05/10 02:42:09;;;;;;;5.77;5.47;;;20.20;44.90;;;;;;5062011;28;20431;-59
2022/05/10 02:44:36;;;;;;;6.50;6.10;;;20.20;44.90;;;;;;5061437;28;20445;-59
2022/05/10 02:47:01;;;;;;;6.40;6.00;;;20.20;44.90;;;;;;5061931;28;20423;-59
2022/05/10 02:49:27;;;;;;;6.10;5.80;;;20.20;44.90;;;;;;5060936;28;20437;-59
2022/05/10 02:51:54;;;;;;;6.40;6.03;;;20.20;44.90;;;;;;5063947;28;20226;-60
2022/05/10 02:54:19;;;;;;;6.13;5.83;;;20.20;44.90;;;;;;5061599;28;20218;-59
2022/05/10 02:56:45;;;;;;;5.90;5.60;;;20.20;44.90;;;;;;5062824;28;20458;-59
2022/05/10 02:59:29;;;;;;;6.73;6.40;;;20.20;44.90;;;;;;5063065;28;20220;-59
2022/05/10 03:02:13;;;;;;;6.17;5.87;;;20.20;44.90;;;;;;5056084;28;20226;-60
2022/05/10 03:04:42;;;;;;;6.73;6.43;;;20.20;44.90;;;;;;5059171;28;20798;-59
2022/05/10 03:07:08;;;;;;;6.60;6.30;;;20.20;44.90;;;;;;5090382;28;20755;-59
2022/05/10 03:09:34;;;;;;;7.10;6.70;;;20.20;44.90;;;;;;5061148;28;20447;-60
2022/05/10 03:12:04;;;;;;;6.70;6.40;;;20.20;44.90;;;;;;5060939;28;20413;-60
2022/05/10 03:14:30;;;;;;;6.50;6.10;;;20.20;44.90;;;;;;5060540;28;20218;-59
2022/05/10 03:16:55;;;;;;;6.20;5.90;;;20.20;44.90;;;;;;5061883;28;20461;-59
2022/05/10 03:19:21;;;;;;;6.90;6.43;;;20.20;44.90;;;;;;5055612;28;20242;-59
2022/05/10 03:21:47;;;;;;;6.50;6.10;;;20.20;44.90;;;;;;5064340;28;20666;-59
2022/05/10 03:24:13;;;;;;;7.03;6.63;;;20.20;44.90;;;;;;5059670;28;20213;-59
2022/05/10 03:26:45;;;;;;;5.83;5.53;;;20.20;44.90;;;;;;5059500;28;20450;-59
2022/05/10 03:29:11;;;;;;;6.13;5.83;;;20.20;45.70;;;;;;5060586;28;20293;-58
2022/05/10 03:31:36;;;;;;;7.30;6.90;;;20.20;44.90;;;;;;5089518;28;20863;-60
2022/05/10 03:36:46;;;;;;;7.20;6.80;;;20.20;44.90;;;;;;5060092;28;20283;-60
2022/05/10 03:39:12;;;;;;;6.10;5.80;;;20.20;44.90;;;;;;5056745;28;20447;-59
2022/05/10 03:41:37;;;;;;;6.03;5.73;;;20.20;44.90;;;;;;5056130;28;20227;-59
2022/05/10 03:44:04;;;;;;;7.20;6.80;;;20.20;44.90;;;;;;5062452;28;20217;-58
2022/05/10 03:46:29;;;;;;;7.07;6.57;;;20.20;44.90;;;;;;5056448;28;20225;-59
2022/05/10 03:48:55;;;;;;;6.87;6.47;;;20.20;44.90;;;;;;5060263;28;20443;-59
2022/05/10 03:51:21;;;;;;;6.77;6.37;;;20.20;44.90;;;;;;5063850;28;20234;-60
2022/05/10 03:53:46;;;;;;;7.00;6.60;;;20.20;44.90;;;;;;5061764;28;20230;-59
2022/05/10 03:56:12;;;;;;;7.13;6.73;;;20.20;44.90;;;;;;5060440;28;20766;-59
2022/05/10 03:58:38;;;;;;;6.50;6.20;;;20.20;44.90;;;;;;5058533;28;20349;-59
2022/05/10 04:01:06;;;;;;;7.40;6.97;;;20.20;44.90;;;;;;5060853;28;20221;-60
2022/05/10 04:03:31;;;;;;;6.50;6.10;;;20.20;45.60;;;;;;5057198;28;20245;-59
2022/05/10 04:05:57;;;;;;;6.80;6.40;;;20.20;44.90;;;;;;5060271;28;20470;-60
2022/05/10 04:08:23;;;;;;;6.70;6.30;;;20.20;44.90;;;;;;5059043;28;20240;-58
2022/05/10 04:10:49;;;;;;;6.23;5.93;;;20.20;44.90;;;;;;5060526;28;20239;-59
2022/05/10 04:13:15;;;;;;;7.17;6.77;;;20.20;44.90;;;;;;5064366;28;21117;-59
2022/05/10 04:15:40;;;;;;;5.83;5.53;;;20.20;44.90;;;;;;5074093;28;20253;-59
2022/05/10 04:18:06;;;;;;;6.40;6.10;;;20.20;44.90;;;;;;5058391;28;20233;-59
2022/05/10 04:20:31;;;;;;;6.90;6.57;;;20.20;44.90;;;;;;5063373;28;20581;-59
2022/05/10 04:22:59;;;;;;;6.10;5.80;;;20.20;44.90;;;;;;5059107;28;20269;-59
2022/05/10 04:25:25;;;;;;;6.80;6.40;;;20.20;44.90;;;;;;5060632;28;20605;-58
2022/05/10 04:27:54;;;;;;;7.10;6.60;;;20.20;44.90;;;;;;5064824;28;20804;-58
2022/05/10 04:30:21;;;;;;;7.37;6.97;;;20.20;44.90;;;;;;5063835;28;20525;-59
2022/05/10 04:32:47;;;;;;;6.87;6.47;;;20.20;45.60;;;;;;5058625;28;20459;-60
2022/05/10 04:35:13;;;;;;;7.63;7.20;;;20.20;44.90;;;;;;5062521;28;20537;-60
2022/05/10 04:37:39;;;;;;;7.17;6.67;;;20.20;44.90;;;;;;5057166;28;20517;-60
2022/05/10 04:42:52;;;;;;;7.30;6.80;;;20.20;44.90;;;;;;5056745;28;20222;-60
2022/05/10 04:45:19;;;;;;;6.93;6.53;;;20.20;44.90;;;;;;5059517;28;20450;-61
2022/05/10 04:47:45;;;;;;;6.60;6.20;;;20.20;44.90;;;;;;5062714;28;20427;-60
2022/05/10 04:50:11;;;;;;;6.93;6.50;;;20.20;44.90;;;;;;5058197;28;20446;-59
2022/05/10 04:52:38;;;;;;;6.50;6.20;;;20.20;44.90;;;;;;5058676;28;20414;-60
2022/05/10 04:55:05;;;;;;;6.87;6.47;;;20.20;44.90;;;;;;5054404;28;20466;-60
2022/05/10 04:57:31;;;;;;;6.73;6.33;;;20.20;44.90;;;;;;5058709;28;20458;-58
2022/05/10 04:59:56;;;;;;;6.20;5.80;;;20.20;44.90;;;;;;5058214;28;20894;-59
2022/05/10 05:02:22;;;;;;;6.03;5.73;;;20.20;44.90;;;;;;5053995;28;20730;-59
2022/05/10 05:04:48;;;;;;;6.30;5.90;;;20.20;44.90;;;;;;5062254;28;20547;-59
2022/05/10 05:07:13;;;;;;;6.60;6.20;;;20.20;44.90;;;;;;5060844;28;20264;-60
2022/05/10 05:09:39;;;;;;;6.50;6.13;;;20.20;44.90;;;;;;5058266;28;20234;-61
2022/05/10 05:12:05;;;;;;;6.27;5.97;;;20.20;44.90;;;;;;5060255;28;20718;-61
2022/05/10 05:14:31;;;;;;;6.00;5.70;;;20.20;44.90;;;;;;5061675;28;20213;-58
2022/05/10 05:16:58;;;;;;;6.53;6.13;;;20.20;44.90;;;;;;5059970;28;20238;-60
2022/05/10 05:19:24;;;;;;;6.27;5.90;;;20.20;44.90;;;;;;5065216;28;20500;-60
2022/05/10 05:21:49;;;;;;;6.43;6.13;;;20.20;44.90;;;;;;5048532;28;20426;-62
2022/05/10 05:24:15;;;;;;;6.07;5.77;;;20.20;44.90;;;;;;5064025;28;20213;-60
2022/05/10 05:26:40;;;;;;;7.50;7.10;;;20.20;44.90;;;;;;5065903;28;20221;-60
2022/05/10 05:29:06;;;;;;;6.63;6.33;;;20.20;44.90;;;;;;5064132;28;20249;-60
2022/05/10 05:31:32;;;;;;;6.80;6.40;;;20.20;44.90;;;;;;5067604;28;20244;-60
2022/05/10 05:33:58;;;;;;;7.27;6.83;;;20.20;44.90;;;;;;5060864;28;20225;-59
2022/05/10 05:36:24;;;;;;;7.13;6.73;;;20.20;44.90;;;;;;5061126;28;21025;-59
2022/05/10 05:38:50;;;;;;;6.77;6.37;;;20.20;44.90;;;;;;5059733;28;20282;-59
2022/05/10 05:41:17;;;;;;;7.07;6.73;;;20.20;44.90;;;;;;5059923;28;21099;-59
2022/05/10 05:43:43;;;;;;;7.57;7.17;;;20.20;44.90;;;;;;5062977;28;20238;-59
2022/05/10 05:46:09;;;;;;;7.20;6.80;;;20.20;44.90;;;;;;5062822;28;20452;-60
2022/05/10 05:48:34;;;;;;;7.60;7.10;;;20.20;44.90;;;;;;5060445;28;20244;-59
2022/05/10 05:51:00;;;;;;;7.63;7.20;;;20.20;44.90;;;;;;5060264;28;20228;-61
2022/05/10 05:53:29;;;;;;;6.20;5.90;;;20.30;45.00;;;;;;5060301;28;20225;-60
2022/05/10 05:56:09;;;;;;;7.00;6.53;;;20.30;45.00;;;;;;5067210;28;20230;-59
2022/05/10 05:58:36;;;;;;;7.60;7.20;;;20.30;45.00;;;;;;5083743;27;20461;-61
2022/05/10 06:01:02;;;;;;;6.47;6.10;;;20.30;45.00;;;;;;5089981;28;20454;-59
2022/05/10 06:03:27;;;;;;;6.20;5.90;;;20.30;45.00;;;;;;5081536;28;20434;-59
2022/05/10 06:05:53;;;;;;;6.73;6.33;;;20.30;45.00;;;;;;5085588;28;20473;-60
2022/05/10 06:08:19;;;;;;;6.53;6.23;;;20.30;45.00;;;;;;5087604;27;20218;-60
2022/05/10 06:10:50;;;;;;;6.57;6.17;;;20.30;45.00;;;;;;5081022;28;20222;-59
2022/05/10 06:13:19;;;;;;;6.20;5.80;;;20.30;45.00;;;;;;5115482;27;20209;-59
2022/05/10 06:15:44;;;;;;;5.97;5.67;;;20.30;45.00;;;;;;5080472;28;20496;-59
2022/05/10 06:18:10;;;;;;;6.10;5.70;;;20.30;45.00;;;;;;5086190;27;20827;-60
2022/05/10 06:20:36;;;;;;;6.50;6.10;;;20.30;44.90;;;;;;5083877;28;20241;-59
2022/05/10 06:23:03;;;;;;;6.40;6.00;;;20.30;45.00;;;;;;5083159;28;20235;-60
2022/05/10 06:25:29;;;;;;;7.03;6.63;;;20.30;45.00;;;;;;5080683;27;20216;-59
2022/05/10 06:27:55;;;;;;;6.50;6.20;;;20.30;45.00;;;;;;5081961;28;20583;-59
2022/05/10 06:30:23;;;;;;;5.67;5.33;;;20.30;44.90;;;;;;5086089;27;20722;-59
2022/05/10 06:32:49;;;;;;;6.90;6.50;;;20.30;45.00;;;;;;5082983;28;20777;-60
2022/05/10 06:35:16;;;;;;;6.60;6.20;;;20.30;45.00;;;;;;5086305;27;20453;-58
2022/05/10 06:40:27;;;;;;;5.90;5.60;;;20.30;45.00;;;;;;5082564;27;20448;-58
2022/05/10 06:42:52;;;;;;;6.00;5.60;;;20.30;45.00;;;;;;5086952;27;20450;-59
2022/05/10 06:45:19;;;;;;;6.30;5.97;;;20.30;45.00;;;;;;5084773;28;20231;-58
2022/05/10 06:47:48;;;;;;;6.17;5.87;;;20.30;45.00;;;;;;5082537;28;20347;-59
2022/05/10 06:50:17;;;;;;;6.40;6.10;;;20.30;45.00;;;;;;5083563;28;20976;-59
2022/05/10 06:52:43;;;;;;;6.50;6.20;;;20.30;45.00;;;;;;5075054;27;20781;-60
2022/05/10 06:55:10;;;;;;;6.27;5.87;;;20.30;45.00;;;;;;5079451;27;20453;-59
2022/05/10 06:57:35;;;;;;;6.80;6.43;;;20.40;45.00;;;;;;5083501;28;20220;-58
2022/05/10 07:00:01;;;;;;;6.23;5.93;;;20.30;45.00;;;;;;5077962;27;20446;-59
2022/05/10 07:02:27;;;;;;;7.00;6.50;;;20.30;44.90;;;;;;5080897;28;20312;-60
2022/05/10 07:04:53;;;;;;;6.70;6.40;;;20.30;45.00;;;;;;5080443;28;20674;-60
2022/05/10 07:07:19;;;;;;;5.97;5.70;;;20.30;45.00;;;;;;5087740;28;20627;-59
2022/05/10 07:09:45;;;;;;;5.70;5.40;;;20.30;45.00;;;;;;5080708;28;20926;-60
2022/05/10 07:12:11;;;;;;;6.00;5.70;;;20.30;45.00;;;;;;5079353;27;20668;-59
2022/05/10 07:14:36;;;;;;;6.23;5.93;;;20.30;44.90;;;;;;5081488;28;20296;-59
2022/05/10 07:17:03;;;;;;;7.10;6.60;;;20.30;45.00;;;;;;5046214;27;1044474;-59
2022/05/10 07:19:28;;;;;;;6.70;6.40;;;20.40;45.00;;;;;;5081486;28;20256;-59
2022/05/10 07:21:54;;;;;;;7.50;7.00;;;20.40;45.00;;;;;;5079770;28;20447;-60
2022/05/10 07:24:19;;;;;;;6.63;6.20;;;20.40;45.00;;;;;;5086080;27;20205;-60
2022/05/10 07:26:46;;;;;;;7.10;6.70;;;20.40;45.00;;;;;;5079798;27;20738;-60
2022/05/10 07:29:12;;;;;;;6.33;5.93;;;20.40;45.00;;;;;;5079190;27;20685;-59
2022/05/10 07:31:39;;;;;;;6.23;5.93;;;20.40;45.00;;;;;;5079989;27;20508;-59
2022/05/10 07:34:05;;;;;;;7.33;6.87;;;20.40;45.00;;;;;;5080674;28;20462;-59
2022/05/10 07:36:33;;;;;;;6.57;6.27;;;20.40;45.00;;;;;;5077391;28;20599;-59
2022/05/10 07:39:11;;;;;;;6.47;6.07;;;20.40;45.00;;;;;;5077649;27;20470;-60
2022/05/10 07:41:38;;;;;;;7.10;6.67;;;20.40;45.00;;;;;;5082479;27;20434;-60
2022/05/10 07:44:05;;;;;;;7.40;6.90;;;20.40;45.00;;;;;;5084936;27;20441;-61
2022/05/10 07:46:31;;;;;;;6.73;6.40;;;20.40;45.00;;;;;;5080467;27;20511;-59
2022/05/10 07:48:57;;;;;;;6.97;6.57;;;20.40;45.00;;;;;;5082663;27;20440;-59
2022/05/10 07:51:22;;;;;;;5.93;5.63;;;20.40;45.00;;;;;;5089176;28;20217;-60
2022/05/10 07:53:48;;;;;;;6.70;6.30;;;20.40;45.00;;;;;;5110403;27;20372;-60
2022/05/10 07:56:14;;;;;;;6.03;5.73;;;20.40;45.00;;;;;;5079352;28;20290;-60
2022/05/10 07:58:40;;;;;;;5.80;5.50;;;20.40;45.00;;;;;;5080538;27;20213;-61
2022/05/10 08:01:07;;;;;;;7.03;6.63;;;20.40;45.00;;;;;;5077802;28;20932;-60
2022/05/10 08:03:33;;;;;;;5.87;5.57;;;20.40;45.00;;;;;;5076995;27;20638;-60
2022/05/10 08:06:02;;;;;;;6.73;6.43;;;20.40;45.00;;;;;;5083374;28;20442;-59
2022/05/10 08:08:33;;;;;;;6.90;6.50;;;20.40;45.00;;;;;;5081642;28;20442;-60
2022/05/10 08:10:59;;;;;;;7.00;6.60;;;20.40;45.00;;;;;;5080000;28;20424;-60
2022/05/10 08:13:28;;;;;;;7.47;7.00;;;20.40;45.00;;;;;;5082033;27;20440;-59
2022/05/10 08:15:54;;;;;;;7.77;7.30;;;20.40;45.00;;;;;;5081358;27;20508;-59
2022/05/10 08:18:21;;;;;;;6.70;6.30;;;20.40;45.00;;;;;;5077716;27;20463;-60
2022/05/10 08:20:47;;;;;;;7.57;7.07;;;20.40;45.00;;;;;;5075641;27;20447;-59
2022/05/10 08:23:18;;;;;;;7.60;7.00;;;20.40;45.10;;;;;;5084616;27;20566;-59
2022/05/10 08:25:44;;;;;;;7.30;6.87;;;20.40;45.00;;;;;;5082014;28;20460;-59
2022/05/10 08:28:13;;;;;;;7.70;7.20;;;20.40;45.00;;;;;;5081949;28;20438;-60
2022/05/10 08:30:41;;;;;;;7.37;6.97;;;20.40;45.00;;;;;;5076648;28;20375;-60
2022/05/10 08:33:10;;;;;;;7.07;6.67;;;20.40;45.00;;;;;;5083359;27;20416;-59
2022/05/10 08:35:38;;;;;;;6.87;6.37;;;20.40;45.00;;;;;;5086651;28;20452;-60
2022/05/10 08:38:05;;;;;;;7.37;6.93;;;20.40;45.10;;;;;;5077404;28;20451;-59
2022/05/10 08:40:38;;;;;;;6.97;6.57;;;20.40;45.00;;;;;;5083243;28;20453;-60
2022/05/10 08:43:11;;;;;;;7.50;6.87;;;20.40;45.00;;;;;;5054593;28;20463;-60
2022/05/10 08:45:41;;;;;;;7.10;6.70;;;20.40;45.00;;;;;;5060369;28;20505;-59
2022/05/10 08:48:07;;;;;;;7.67;7.27;;;20.40;45.00;;;;;;5057684;28;20439;-59
2022/05/10 08:50:33;;;;;;;8.00;7.40;;;20.40;45.00;;;;;;5060085;28;20428;-59
2022/05/10 08:53:01;;;;;;;8.80;8.00;;;20.40;45.00;;;;;;5061316;28;20224;-60
2022/05/10 08:55:30;;;;;;;7.90;7.40;;;20.40;45.00;;;;;;5059690;28;20237;-60
2022/05/10 08:58:23;;;;;;;6.73;6.33;;;20.40;45.00;;;;;;5056598;28;20463;-59
2022/05/10 09:00:52;;;;;;;7.60;7.10;;;20.40;45.00;;;;;;5057728;28;20437;-60
2022/05/10 09:03:34;;;;;;;7.37;6.87;;;20.40;45.00;;;;;;5058702;28;20496;-60
2022/05/10 09:06:06;;;;;;;7.67;7.13;;;20.40;45.00;;;;;;5055332;28;20493;-59
2022/05/10 09:08:53;;;;;;;8.50;7.70;;;20.40;45.00;;;;;;5056977;28;20417;-60
2022/05/10 09:11:21;;;;;;;8.57;7.90;;;20.40;45.00;;;;;;5085769;27;20809;-60
2022/05/10 09:13:47;;;;;;;7.70;7.20;;;20.40;45.00;;;;;;5077352;27;20424;-60
2022/05/10 09:16:14;;;;;;;7.50;7.00;;;20.40;45.00;;;;;;5080719;27;20496;-60
2022/05/10 09:18:41;;;;;;;8.00;7.33;;;20.40;45.00;;;;;;5076012;27;20251;-59
2022/05/10 09:21:24;;;;;;;8.30;7.60;;;20.40;45.00;;;;;;5080415;27;20501;-61
2022/05/10 09:24:27;;;;;;;7.97;7.37;;;20.40;45.00;;;;;;5077088;28;20450;-60
2022/05/10 09:26:57;;;;;;;8.77;8.07;;;20.40;45.00;;;;;;5080771;27;20455;-61
2022/05/10 09:29:51;;;;;;;8.83;8.13;;;20.40;45.00;;;;;;5080649;27;20776;-60
2022/05/10 09:35:16;;;;;;;7.93;7.40;;;20.40;45.00;;;;;;5080276;28;20431;-59
2022/05/10 09:37:45;;;;;;;8.67;8.07;;;20.40;45.00;;;;;;5079246;28;20441;-59
2022/05/10 09:40:48;;;;;;;8.17;7.57;;;20.40;45.00;;;;;;5079425;27;20439;-60
2022/05/10 09:43:29;;;;;;;8.23;7.73;;;20.40;45.00;;;;;;5041922;28;20448;-59
2022/05/10 09:46:21;;;;;;;7.77;7.17;;;20.40;45.00;;;;;;5079656;27;20432;-60
2022/05/10 09:48:50;;;;;;;7.37;6.97;;;20.40;45.00;;;;;;5074790;28;20439;-60
2022/05/10 09:51:36;;;;;;;8.20;7.60;;;20.40;45.00;;;;;;5082350;27;20438;-59
2022/05/10 09:54:17;;;;;;;7.83;7.33;;;20.40;45.00;;;;;;5075925;27;20490;-59
2022/05/10 09:56:44;;;;;;;7.40;6.93;;;20.40;45.00;;;;;;5078382;27;20465;-61
2022/05/10 09:59:22;;;;;;;7.77;7.37;;;20.40;45.00;;;;;;5082192;28;20417;-59
2022/05/10 10:01:49;;;;;;;7.00;6.70;;;20.40;45.00;;;;;;5077743;28;20930;-59
2022/05/10 10:04:20;;;;;;;7.23;6.83;;;20.40;45.00;;;;;;5079861;27;20417;-60
2022/05/10 10:07:07;;;;;;;7.00;6.53;;;20.40;45.00;;;;;;5080755;27;20440;-60
2022/05/10 10:09:36;;;;;;;7.70;7.17;;;20.40;45.00;;;;;;5078898;28;20491;-59
2022/05/10 10:12:03;;;;;;;6.73;6.43;;;20.50;45.10;;;;;;5090279;28;20526;-59
2022/05/10 10:14:42;;;;;;;7.77;7.27;;;20.40;45.00;;;;;;5087609;28;20446;-60
2022/05/10 10:17:24;;;;;;;7.33;6.87;;;20.40;45.00;;;;;;5064069;28;20433;-60
2022/05/10 10:19:55;;;;;;;7.53;7.03;;;20.40;45.00;;;;;;5062440;28;20427;-60
2022/05/10 10:22:32;;;;;;;7.30;6.80;;;20.40;45.10;;;;;;5064683;28;21020;-59
2022/05/10 10:25:08;;;;;;;7.37;6.87;;;20.40;45.10;;;;;;5065710;28;20964;-60
2022/05/10 10:27:48;;;;;;;7.13;6.63;;;20.40;45.00;;;;;;5073210;27;20514;-59
2022/05/10 10:30:20;;;;;;;7.40;6.90;;;20.40;45.00;;;;;;5081227;27;20488;-60
2022/05/10 10:32:53;;;;;;;7.83;7.33;;;20.40;45.00;;;;;;5079575;28;20456;-59
2022/05/10 10:35:26;;;;;;;6.63;6.23;;;20.40;45.10;;;;;;5081258;28;20472;-59
2022/05/10 10:37:56;;;;;;;6.20;5.80;;;20.40;45.00;;;;;;5080263;28;20544;-60
2022/05/10 10:40:27;;;;;;;6.97;6.60;;;20.40;45.00;;;;;;5084230;27;20483;-59
2022/05/10 10:43:32;;;;;;;7.30;6.70;;;20.40;45.00;;;;;;5084285;27;20457;-59
2022/05/10 10:46:16;;;;;;;6.37;5.97;;;20.40;45.10;;;;;;5076961;28;20481;-59
2022/05/10 10:48:49;;;;;;;7.07;6.57;;;20.40;45.00;;;;;;5082585;28;20483;-58
2022/05/10 10:51:15;;;;;;;6.63;6.23;;;20.40;45.00;;;;;;5085412;28;20556;-59
2022/05/10 10:53:44;;;;;;;6.17;5.83;;;20.40;45.10;;;;;;5083126;27;20409;-59
2022/05/10 10:56:34;;;;;;;7.10;6.70;;;20.40;45.00;;;;;;5081220;27;20557;-59
2022/05/10 10:59:18;;;;;;;6.37;6.07;;;20.40;45.00;;;;;;5086301;27;20401;-59
2022/05/10 11:02:21;;;;;;;6.87;6.47;;;20.40;45.00;;;;;;5085250;28;20525;-60
2022/05/10 11:04:59;;;;;;;6.83;6.43;;;20.40;45.10;;;;;;5062640;27;20436;-59
2022/05/10 11:07:41;;;;;;;7.00;6.50;;;20.40;45.00;;;;;;5063685;28;20443;-59
2022/05/10 11:10:23;;;;;;;7.00;6.60;;;20.40;45.00;;;;;;5060905;28;20450;-59
2022/05/10 11:12:58;;;;;;;6.13;5.83;;;20.40;45.00;;;;;;5058977;28;20486;-60
2022/05/10 11:15:38;;;;;;;6.53;6.13;;;20.40;45.10;;;;;;5061967;28;20468;-61
2022/05/10 11:18:23;;;;;;;6.60;6.20;;;20.40;45.10;;;;;;5061709;28;20455;-60
2022/05/10 11:20:48;;;;;;;6.70;6.30;;;20.40;45.10;;;;;;5064944;28;20445;-60
2022/05/10 11:23:33;;;;;;;5.90;5.60;;;20.40;45.00;;;;;;5059095;28;20444;-59
2022/05/10 11:26:13;;;;;;;6.80;6.40;;;20.40;45.10;;;;;;5060500;28;20214;-60
2022/05/10 11:28:49;;;;;;;6.27;5.93;;;20.40;45.10;;;;;;5060559;28;21412;-59
2022/05/10 11:31:29;;;;;;;6.47;5.97;;;20.40;45.00;;;;;;5074357;28;20970;-59
2022/05/10 11:34:26;;;;;;;6.80;6.30;;;20.40;45.10;;;;;;5085073;27;20451;-59
2022/05/10 11:36:53;;;;;;;6.93;6.43;;;20.40;45.00;;;;;;5080427;28;20810;-59
2022/05/10 11:39:56;;;;;;;6.77;6.37;;;20.40;45.10;;;;;;5081772;27;20947;-59
2022/05/10 11:42:46;;;;;;;5.80;5.50;;;20.40;45.10;;;;;;5080862;28;20567;-60
2022/05/10 11:45:56;;;;;;;5.80;5.50;;;20.40;45.00;;;;;;5058058;28;20444;-60
2022/05/10 11:48:40;;;;;;;6.43;5.93;;;20.40;45.00;;;;;;5042830;28;20456;-59
2022/05/10 11:51:39;;;;;;;6.23;5.83;;;20.40;45.00;;;;;;5059961;28;20405;-59
2022/05/10 11:55:02;;;;;;;5.57;5.27;;;20.40;45.10;;;;;;5059930;28;20470;-59
2022/05/10 11:57:32;;;;;;;6.07;5.77;;;20.40;45.10;;;;;;5059625;28;20545;-59
2022/05/10 12:00:27;;;;;;;5.03;4.73;;;20.40;45.00;;;;;;5084448;27;20533;-58
2022/05/10 12:02:53;;;;;;;5.73;5.30;;;20.40;45.10;;;;;;5086339;27;20457;-59
2022/05/10 12:05:35;;;;;;;6.40;6.10;;;20.40;45.20;;;;;;5077538;28;20467;-59
2022/05/10 12:08:27;;;;;;;5.50;5.17;;;20.40;45.10;;;;;;5082048;28;20476;-59
2022/05/10 12:10:53;;;;;;;5.80;5.50;;;20.40;45.00;;;;;;5084440;27;20475;-59
2022/05/10 12:21:19;;;;;;;5.47;5.17;;;20.40;45.10;;;;;;5079361;27;20449;-59
2022/05/10 12:22:07;;;;;;;6.00;5.70;;;20.40;45.00;;;;;;5060125;28;20508;-59
2022/05/10 12:24:39;;;;;;;5.40;5.10;;;20.40;45.10;;;;;;5061923;28;20435;-59
2022/05/10 12:27:08;;;;;;;5.53;5.17;;;20.40;45.10;;;;;;5060852;28;20454;-59
2022/05/10 12:29:39;;;;;;;5.47;5.17;;;20.40;45.10;;;;;;5057291;28;20413;-60
2022/05/10 12:32:29;;;;;;;5.60;5.30;;;20.40;45.10;;;;;;5068879;28;20462;-58
2022/05/10 12:35:04;;;;;;;5.80;5.50;;;20.40;45.00;;;;;;5073871;28;20434;-61
2022/05/10 12:37:32;;;;;;;5.83;5.50;;;20.40;45.00;;;;;;5082831;27;20489;-60
2022/05/10 12:40:13;;;;;;;5.80;5.47;;;20.30;45.00;;;;;;5077181;28;20437;-59
2022/05/10 12:43:14;;;;;;;5.03;4.73;;;20.40;45.00;;;;;;5081382;27;21083;-60
2022/05/10 12:46:01;;;;;;;5.77;5.47;;;20.40;45.10;;;;;;5083731;28;20457;-59
2022/05/10 12:48:46;;;;;;;5.60;5.30;;;20.40;45.00;;;;;;5085052;27;20449;-59
2022/05/10 12:51:38;;;;;;;5.20;4.93;;;20.40;45.00;;;;;;5057978;28;20470;-60
2022/05/10 12:54:09;;;;;;;5.53;5.20;;;20.40;45.10;;;;;;5065593;28;20537;-59
2022/05/10 12:56:59;;;;;;;5.40;5.10;;;20.30;45.00;;;;;;5072362;28;20548;-60
2022/05/10 12:59:34;;;;;;;5.00;4.70;;;20.40;45.10;;;;;;5082254;28;20491;-59
2022/05/10 13:02:03;;;;;;;6.30;5.87;;;20.30;45.10;;;;;;5082938;27;20938;-59
2022/05/10 13:04:42;;;;;;;5.77;5.37;;;20.30;45.10;;;;;;5078970;28;20529;-59
2022/05/10 13:07:45;;;;;;;7.00;5.80;;;20.30;45.00;;;;;;5080126;28;20453;-59
2022/05/10 13:10:16;;;;;;;5.97;5.57;;;20.40;45.00;;;;;;5055478;28;20450;-58
2022/05/10 13:12:49;;;;;;;5.63;5.20;;;20.40;45.00;;;;;;5061408;28;20442;-59
2022/05/10 13:15:21;;;;;;;5.83;5.53;;;20.40;45.00;;;;;;5061008;28;20446;-59
2022/05/10 13:17:51;;;;;;;6.20;5.90;;;20.30;45.00;;;;;;5058441;28;20433;-62
2022/05/10 13:20:21;;;;;;;5.33;5.03;;;20.40;45.00;;;;;;5077888;27;20449;-59
2022/05/10 13:22:51;;;;;;;5.90;5.40;;;20.40;45.00;;;;;;5085628;28;20480;-59
2022/05/10 13:25:26;;;;;;;5.43;5.13;;;20.40;45.00;;;;;;5085016;28;20468;-60
2022/05/10 13:27:52;;;;;;;7.30;5.00;;;20.30;45.00;;;;;;5078187;28;20504;-58
2022/05/10 13:30:20;;;;;;;5.70;5.40;;;20.30;45.00;;;;;;5078292;27;20492;-58
2022/05/10 13:32:51;;;;;;;5.50;5.30;;;20.30;45.00;;;;;;5080044;28;20432;-58
2022/05/10 13:35:26;;;;;;;6.30;5.90;;;20.30;45.00;;;;;;5085280;27;20536;-59
2022/05/10 13:37:58;;;;;;;5.70;5.40;;;20.30;45.00;;;;;;5087012;28;20456;-59
2022/05/10 13:40:26;;;;;;;5.50;5.20;;;20.30;45.00;;;;;;5083347;28;21140;-59